createdAt,value
2017-12-23T00:00:09.507Z,1034.02
2017-12-23T00:01:31.126Z,1034.04
2017-12-23T00:02:52.738Z,1034.01
2017-12-23T00:04:14.654Z,1033.95
2017-12-23T00:05:36.578Z,1033.93
2017-12-23T00:06:58.185Z,1033.85
2017-12-23T00:08:20.326Z,1033.82
2017-12-23T00:09:42.205Z,1033.83
2017-12-23T00:11:03.578Z,1033.84
2017-12-23T00:12:24.945Z,1033.8
2017-12-23T00:13:46.833Z,1033.81
2017-12-23T00:15:07.938Z,1033.83
2017-12-23T00:17:52.393Z,1033.77
2017-12-23T00:19:14.006Z,1033.77
2017-12-23T00:20:35.362Z,1033.74
2017-12-23T00:21:57.494Z,1033.78
2017-12-23T00:23:19.643Z,1033.72
2017-12-23T00:24:41.533Z,1033.73
2017-12-23T00:26:03.139Z,1033.62
2017-12-23T00:27:24.755Z,1033.66
2017-12-23T00:28:46.611Z,1033.64
2017-12-23T00:30:08.836Z,1033.57
2017-12-23T00:31:30.185Z,1033.55
2017-12-23T00:32:52.447Z,1033.53
2017-12-23T00:34:14.792Z,1033.52
2017-12-23T00:35:36.797Z,1033.45
2017-12-23T00:36:58.089Z,1033.47
2017-12-23T00:38:19.978Z,1033.53
2017-12-23T00:39:41.943Z,1033.51
2017-12-23T00:41:03.272Z,1033.53
2017-12-23T00:42:25.398Z,1033.53
2017-12-23T00:43:47.263Z,1033.53
2017-12-23T00:45:09.143Z,1033.47
2017-12-23T00:46:30.756Z,1033.43
2017-12-23T00:47:52.620Z,1033.37
2017-12-23T00:49:14.490Z,1033.34
2017-12-23T00:50:36.221Z,1033.32
2017-12-23T00:51:57.573Z,1033.33
2017-12-23T00:53:18.918Z,1033.34
2017-12-23T00:54:41.050Z,1033.36
2017-12-23T00:56:02.660Z,1033.4
2017-12-23T00:57:24.360Z,1033.38
2017-12-23T00:58:46.410Z,1033.39
2017-12-23T01:00:08.596Z,1033.29
2017-12-23T01:01:30.233Z,1033.3
2017-12-23T01:02:52.382Z,1033.24
2017-12-23T01:04:14.276Z,1033.22
2017-12-23T01:05:36.145Z,1033.18
2017-12-23T01:06:58.400Z,1033.13
2017-12-23T01:08:20.070Z,1033.11
2017-12-23T01:09:41.945Z,1033.1
2017-12-23T01:11:03.558Z,1033.11
2017-12-23T01:12:25.457Z,1033.16
2017-12-23T01:13:47.348Z,1033.14
2017-12-23T01:15:09.220Z,1033.11
2017-12-23T01:16:30.913Z,1033.11
2017-12-23T01:17:53.038Z,1033.13
2017-12-23T01:19:14.497Z,1033.07
2017-12-23T01:20:36.352Z,1033.07
2017-12-23T01:21:58.309Z,1033.06
2017-12-23T01:23:20.481Z,1033
2017-12-23T01:24:42.132Z,1033.01
2017-12-23T01:26:03.996Z,1033.04
2017-12-23T01:27:25.873Z,1032.98
2017-12-23T01:28:47.762Z,1032.99
2017-12-23T01:30:08.949Z,1032.99
2017-12-23T01:31:30.836Z,1032.96
2017-12-23T01:32:52.453Z,1032.91
2017-12-23T01:34:14.739Z,1032.92
2017-12-23T01:35:36.424Z,1032.95
2017-12-23T01:36:58.307Z,1032.88
2017-12-23T01:38:20.580Z,1032.85
2017-12-23T01:39:42.191Z,1032.8
2017-12-23T01:41:04.091Z,1032.78
2017-12-23T01:42:25.418Z,1032.76
2017-12-23T01:43:47.094Z,1032.67
2017-12-23T01:45:08.991Z,1032.68
2017-12-23T01:46:30.912Z,1032.65
2017-12-23T01:47:52.506Z,1032.67
2017-12-23T01:49:14.454Z,1032.6
2017-12-23T01:50:36.102Z,1032.59
2017-12-23T01:51:57.453Z,1032.54
2017-12-23T01:53:19.672Z,1032.52
2017-12-23T01:54:41.324Z,1032.5
2017-12-23T01:56:03.199Z,1032.45
2017-12-23T01:57:25.322Z,1032.48
2017-12-23T01:58:47.184Z,1032.49
2017-12-23T02:00:09.039Z,1032.5
2017-12-23T02:01:30.384Z,1032.52
2017-12-23T02:02:52.250Z,1032.52
2017-12-23T02:04:13.975Z,1032.53
2017-12-23T02:05:35.610Z,1032.52
2017-12-23T02:06:57.388Z,1032.48
2017-12-23T02:08:18.983Z,1032.5
2017-12-23T02:09:41.174Z,1032.51
2017-12-23T02:11:02.862Z,1032.49
2017-12-23T02:12:24.715Z,1032.49
2017-12-23T02:13:46.313Z,1032.43
2017-12-23T02:15:08.284Z,1032.37
2017-12-23T02:16:30.157Z,1032.35
2017-12-23T02:17:51.801Z,1032.3
2017-12-23T02:19:13.554Z,1032.29
2017-12-23T02:20:34.656Z,1032.26
2017-12-23T02:21:56.780Z,1032.28
2017-12-23T02:23:18.385Z,1032.21
2017-12-23T02:24:40.256Z,1032.22
2017-12-23T02:26:02.387Z,1032.18
2017-12-23T02:27:24.237Z,1032.19
2017-12-23T02:28:45.855Z,1032.17
2017-12-23T02:30:07.973Z,1032.14
2017-12-23T02:31:29.304Z,1032.08
2017-12-23T02:32:50.399Z,1032.07
2017-12-23T02:34:12.280Z,1031.99
2017-12-23T02:35:33.723Z,1032.02
2017-12-23T02:36:55.696Z,1031.97
2017-12-23T02:38:17.952Z,1032.01
2017-12-23T02:39:39.665Z,1032.08
2017-12-23T02:41:01.676Z,1032.07
2017-12-23T02:42:23.279Z,1032.03
2017-12-23T02:43:45.203Z,1031.96
2017-12-23T02:45:07.128Z,1031.98
2017-12-23T02:46:28.717Z,1031.93
2017-12-23T02:47:50.579Z,1031.92
2017-12-23T02:49:12.479Z,1031.87
2017-12-23T02:50:33.927Z,1031.79
2017-12-23T02:51:55.546Z,1031.66
2017-12-23T02:53:17.724Z,1031.67
2017-12-23T02:54:39.408Z,1031.55
2017-12-23T02:56:01.304Z,1031.43
2017-12-23T02:57:23.737Z,1031.4
2017-12-23T02:58:45.731Z,1031.31
2017-12-23T03:00:07.484Z,1031.31
2017-12-23T03:01:28.587Z,1031.34
2017-12-23T03:02:50.461Z,1031.26
2017-12-23T03:04:12.597Z,1031.23
2017-12-23T03:05:34.306Z,1031.25
2017-12-23T03:06:56.198Z,1031.24
2017-12-23T03:08:18.678Z,1031.29
2017-12-23T03:09:40.036Z,1031.29
2017-12-23T03:11:01.888Z,1031.22
2017-12-23T03:12:23.497Z,1031.28
2017-12-23T03:13:45.106Z,1031.21
2017-12-23T03:15:07.278Z,1031.2
2017-12-23T03:16:28.609Z,1031.16
2017-12-23T03:17:50.469Z,1031.15
2017-12-23T03:19:12.668Z,1031.16
2017-12-23T03:20:34.455Z,1031.16
2017-12-23T03:21:56.045Z,1031.16
2017-12-23T03:23:17.901Z,1031.22
2017-12-23T03:24:39.768Z,1031.14
2017-12-23T03:26:01.634Z,1031.14
2017-12-23T03:27:22.958Z,1031.16
2017-12-23T03:28:44.575Z,1031.1
2017-12-23T03:30:06.231Z,1031.18
2017-12-23T03:31:27.835Z,1031.11
2017-12-23T03:32:49.454Z,1031.11
2017-12-23T03:34:11.147Z,1031.07
2017-12-23T03:35:33.266Z,1031
2017-12-23T03:36:55.109Z,1030.98
2017-12-23T03:38:16.547Z,1031.04
2017-12-23T03:39:38.263Z,1031.04
2017-12-23T03:41:00.263Z,1031
2017-12-23T03:42:22.115Z,1030.93
2017-12-23T03:43:43.953Z,1030.92
2017-12-23T03:45:05.883Z,1030.91
2017-12-23T03:46:27.606Z,1030.83
2017-12-23T03:47:48.931Z,1030.91
2017-12-23T03:49:10.011Z,1030.89
2017-12-23T03:50:31.871Z,1030.81
2017-12-23T03:51:53.776Z,1030.86
2017-12-23T03:53:15.461Z,1030.85
2017-12-23T03:54:37.093Z,1030.82
2017-12-23T03:55:58.421Z,1030.85
2017-12-23T03:57:20.151Z,1030.92
2017-12-23T03:58:42.079Z,1030.88
2017-12-23T04:00:04.200Z,1030.81
2017-12-23T04:01:26.302Z,1030.72
2017-12-23T04:02:47.976Z,1030.71
2017-12-23T04:04:09.992Z,1030.64
2017-12-23T04:05:32.110Z,1030.6
2017-12-23T04:06:53.445Z,1030.61
2017-12-23T04:08:15.138Z,1030.54
2017-12-23T04:09:36.996Z,1030.49
2017-12-23T04:10:59.103Z,1030.48
2017-12-23T04:12:20.736Z,1030.4
2017-12-23T04:13:42.067Z,1030.44
2017-12-23T04:15:03.698Z,1030.38
2017-12-23T04:16:24.878Z,1030.34
2017-12-23T04:17:46.552Z,1030.47
2017-12-23T04:19:08.211Z,1030.46
2017-12-23T04:20:29.558Z,1030.43
2017-12-23T04:21:51.153Z,1030.45
2017-12-23T04:23:12.558Z,1030.37
2017-12-23T04:24:34.424Z,1030.34
2017-12-23T04:25:56.053Z,1030.27
2017-12-23T04:27:17.907Z,1030.19
2017-12-23T04:28:39.242Z,1030.13
2017-12-23T04:30:01.455Z,1030.09
2017-12-23T04:31:23.113Z,1030.08
2017-12-23T04:32:45.087Z,1030.12
2017-12-23T04:34:07.153Z,1030.12
2017-12-23T04:35:29.106Z,1030.05
2017-12-23T04:36:51.231Z,1030.07
2017-12-23T04:38:12.890Z,1030.13
2017-12-23T04:39:34.850Z,1030.08
2017-12-23T04:40:57.209Z,1030.1
2017-12-23T04:42:18.552Z,1030.03
2017-12-23T04:43:39.873Z,1030.14
2017-12-23T04:45:01.263Z,1030.16
2017-12-23T04:46:23.119Z,1030.16
2017-12-23T04:47:45.098Z,1030.22
2017-12-23T04:49:07.001Z,1030.26
2017-12-23T04:50:28.727Z,1030.2
2017-12-23T04:51:50.845Z,1030.21
2017-12-23T04:53:12.726Z,1030.08
2017-12-23T04:54:34.585Z,1030.12
2017-12-23T04:55:56.716Z,1030.06
2017-12-23T04:57:18.566Z,1030.1
2017-12-23T04:58:40.170Z,1030.13
2017-12-23T05:00:01.318Z,1030.14
2017-12-23T05:01:23.153Z,1030.18
2017-12-23T05:02:44.483Z,1030.16
2017-12-23T05:04:05.823Z,1030.2
2017-12-23T05:05:26.913Z,1030.16
2017-12-23T05:06:48.496Z,1030.09
2017-12-23T05:08:10.080Z,1030.03
2017-12-23T05:09:32.240Z,1029.94
2017-12-23T05:10:54.233Z,1029.95
2017-12-23T05:12:16.152Z,1029.89
2017-12-23T05:13:37.994Z,1029.92
2017-12-23T05:15:00.124Z,1029.93
2017-12-23T05:16:21.998Z,1029.84
2017-12-23T05:17:43.892Z,1029.86
2017-12-23T05:19:06.062Z,1029.75
2017-12-23T05:20:27.630Z,1029.79
2017-12-23T05:21:49.494Z,1029.77
2017-12-23T05:23:11.410Z,1029.72
2017-12-23T05:24:33.280Z,1029.73
2017-12-23T05:25:54.900Z,1029.69
2017-12-23T05:27:16.764Z,1029.72
2017-12-23T05:28:38.361Z,1029.66
2017-12-23T05:29:59.960Z,1029.71
2017-12-23T05:31:21.699Z,1029.66
2017-12-23T05:32:43.422Z,1029.63
2017-12-23T05:34:05.225Z,1029.61
2017-12-23T05:35:26.819Z,1029.61
2017-12-23T05:36:48.921Z,1029.66
2017-12-23T05:38:10.508Z,1029.58
2017-12-23T05:39:32.108Z,1029.68
2017-12-23T05:40:53.441Z,1029.69
2017-12-23T05:42:15.568Z,1029.64
2017-12-23T05:43:37.425Z,1029.62
2017-12-23T05:44:58.867Z,1029.59
2017-12-23T05:46:20.727Z,1029.56
2017-12-23T05:47:42.405Z,1029.5
2017-12-23T05:49:04.287Z,1029.58
2017-12-23T05:50:25.715Z,1029.5
2017-12-23T05:51:47.347Z,1029.58
2017-12-23T05:53:09.962Z,1029.58
2017-12-23T05:54:31.557Z,1029.58
2017-12-23T05:55:53.245Z,1029.58
2017-12-23T05:57:14.880Z,1029.56
2017-12-23T05:58:36.478Z,1029.54
2017-12-23T05:59:58.359Z,1029.53
2017-12-23T06:01:20.009Z,1029.55
2017-12-23T06:02:42.549Z,1029.49
2017-12-23T06:04:04.389Z,1029.48
2017-12-23T06:05:26.025Z,1029.44
2017-12-23T06:06:47.370Z,1029.47
2017-12-23T06:08:08.888Z,1029.43
2017-12-23T06:09:30.624Z,1029.41
2017-12-23T06:10:52.493Z,1029.43
2017-12-23T06:12:13.832Z,1029.43
2017-12-23T06:13:35.817Z,1029.39
2017-12-23T06:14:57.392Z,1029.37
2017-12-23T06:16:18.599Z,1029.41
2017-12-23T06:17:40.000Z,1029.34
2017-12-23T06:19:01.588Z,1029.37
2017-12-23T06:20:23.725Z,1029.35
2017-12-23T06:21:45.598Z,1029.34
2017-12-23T06:23:07.295Z,1029.29
2017-12-23T06:24:29.206Z,1029.34
2017-12-23T06:25:51.486Z,1029.31
2017-12-23T06:27:13.348Z,1029.35
2017-12-23T06:28:35.396Z,1029.31
2017-12-23T06:29:57.022Z,1029.24
2017-12-23T06:31:18.891Z,1029.21
2017-12-23T06:32:40.806Z,1029.19
2017-12-23T06:34:02.924Z,1029.16
2017-12-23T06:35:24.269Z,1029.14
2017-12-23T06:36:45.865Z,1029.15
2017-12-23T06:38:07.792Z,1029.14
2017-12-23T06:39:29.467Z,1029.14
2017-12-23T06:40:51.344Z,1029.13
2017-12-23T06:42:12.757Z,1029.14
2017-12-23T06:43:34.655Z,1029.16
2017-12-23T06:44:56.569Z,1029.15
2017-12-23T06:46:18.526Z,1029.19
2017-12-23T06:47:40.232Z,1029.23
2017-12-23T06:49:02.177Z,1029.21
2017-12-23T06:50:23.780Z,1029.23
2017-12-23T06:51:45.679Z,1029.17
2017-12-23T06:53:07.308Z,1029.16
2017-12-23T06:54:29.421Z,1029.15
2017-12-23T06:55:50.766Z,1029.12
2017-12-23T06:57:12.446Z,1029.06
2017-12-23T06:58:34.045Z,1029.02
2017-12-23T06:59:55.398Z,1029.04
2017-12-23T07:01:16.830Z,1029.09
2017-12-23T07:02:38.670Z,1029.04
2017-12-23T07:04:00.017Z,1029
2017-12-23T07:05:21.601Z,1028.91
2017-12-23T07:06:43.838Z,1028.94
2017-12-23T07:08:05.716Z,1028.99
2017-12-23T07:09:27.317Z,1029.03
2017-12-23T07:10:49.292Z,1028.91
2017-12-23T07:12:11.240Z,1028.93
2017-12-23T07:13:33.186Z,1028.89
2017-12-23T07:14:55.163Z,1028.81
2017-12-23T07:16:17.053Z,1028.78
2017-12-23T07:17:39.039Z,1028.78
2017-12-23T07:19:00.834Z,1028.74
2017-12-23T07:20:22.493Z,1028.8
2017-12-23T07:21:44.187Z,1028.71
2017-12-23T07:23:05.786Z,1028.7
2017-12-23T07:24:27.659Z,1028.76
2017-12-23T07:25:49.507Z,1028.71
2017-12-23T07:27:11.619Z,1028.7
2017-12-23T07:28:33.220Z,1028.72
2017-12-23T07:29:55.647Z,1028.71
2017-12-23T07:31:17.246Z,1028.72
2017-12-23T07:32:39.353Z,1028.67
2017-12-23T07:34:01.206Z,1028.63
2017-12-23T07:35:23.117Z,1028.64
2017-12-23T07:36:44.752Z,1028.68
2017-12-23T07:38:06.355Z,1028.71
2017-12-23T07:39:28.210Z,1028.6
2017-12-23T07:40:49.870Z,1028.67
2017-12-23T07:42:11.213Z,1028.73
2017-12-23T07:43:33.354Z,1028.65
2017-12-23T07:44:55.243Z,1028.72
2017-12-23T07:46:17.437Z,1028.75
2017-12-23T07:47:38.516Z,1028.82
2017-12-23T07:49:00.399Z,1028.84
2017-12-23T07:50:22.426Z,1028.88
2017-12-23T07:51:44.056Z,1028.93
2017-12-23T07:53:05.655Z,1028.85
2017-12-23T07:54:27.527Z,1028.84
2017-12-23T07:55:49.394Z,1028.83
2017-12-23T07:57:11.284Z,1028.85
2017-12-23T07:58:32.995Z,1028.85
2017-12-23T07:59:54.950Z,1028.8
2017-12-23T08:01:16.953Z,1028.82
2017-12-23T08:02:38.696Z,1028.83
2017-12-23T08:04:00.618Z,1028.74
2017-12-23T08:05:22.569Z,1028.71
2017-12-23T08:06:44.221Z,1028.74
2017-12-23T08:08:06.357Z,1028.75
2017-12-23T08:09:28.374Z,1028.74
2017-12-23T08:10:50.532Z,1028.75
2017-12-23T08:12:12.465Z,1028.82
2017-12-23T08:13:34.641Z,1028.73
2017-12-23T08:14:55.989Z,1028.8
2017-12-23T08:16:17.586Z,1028.79
2017-12-23T08:17:39.218Z,1028.79
2017-12-23T08:19:01.081Z,1028.78
2017-12-23T08:20:22.755Z,1028.89
2017-12-23T08:21:44.389Z,1028.8
2017-12-23T08:23:07.006Z,1028.87
2017-12-23T08:24:28.493Z,1028.96
2017-12-23T08:25:50.374Z,1028.91
2017-12-23T08:27:12.585Z,1029
2017-12-23T08:28:34.741Z,1028.95
2017-12-23T08:29:57.071Z,1028.9
2017-12-23T08:31:18.405Z,1028.98
2017-12-23T08:32:40.371Z,1029.06
2017-12-23T08:34:01.474Z,1029.02
2017-12-23T08:35:23.360Z,1029.02
2017-12-23T08:36:45.665Z,1028.99
2017-12-23T08:38:07.291Z,1028.99
2017-12-23T08:39:29.353Z,1029
2017-12-23T08:40:51.421Z,1028.96
2017-12-23T08:42:13.012Z,1028.92
2017-12-23T08:43:34.641Z,1028.95
2017-12-23T08:44:56.061Z,1028.9
2017-12-23T08:46:18.260Z,1028.85
2017-12-23T08:47:40.147Z,1028.85
2017-12-23T08:49:02.007Z,1028.83
2017-12-23T08:50:24.192Z,1028.89
2017-12-23T08:51:45.823Z,1028.93
2017-12-23T08:53:07.516Z,1028.93
2017-12-23T08:54:29.145Z,1028.92
2017-12-23T08:55:51.282Z,1028.92
2017-12-23T08:57:13.804Z,1028.94
2017-12-23T08:58:35.944Z,1028.9
2017-12-23T08:59:57.953Z,1028.78
2017-12-23T09:01:19.624Z,1028.86
2017-12-23T09:04:32.669Z,1028.78
2017-12-23T09:05:54.785Z,1028.72
2017-12-23T09:07:16.659Z,1028.8
2017-12-23T09:08:38.257Z,1028.68
2017-12-23T09:10:00.450Z,1028.76
2017-12-23T09:11:22.599Z,1028.73
2017-12-23T09:12:44.464Z,1028.82
2017-12-23T09:14:06.677Z,1028.83
2017-12-23T09:15:28.298Z,1028.88
2017-12-23T09:16:50.158Z,1028.87
2017-12-23T09:18:11.788Z,1028.9
2017-12-23T09:19:34.074Z,1028.86
2017-12-23T09:20:55.819Z,1028.91
2017-12-23T09:22:17.777Z,1028.81
2017-12-23T09:23:40.059Z,1028.85
2017-12-23T09:25:02.190Z,1028.78
2017-12-23T09:26:24.332Z,1028.92
2017-12-23T09:27:46.034Z,1028.94
2017-12-23T09:29:07.485Z,1028.84
2017-12-23T09:30:29.625Z,1028.91
2017-12-23T09:31:51.648Z,1028.87
2017-12-23T09:33:13.598Z,1028.8
2017-12-23T09:34:35.825Z,1028.9
2017-12-23T09:35:58.000Z,1028.85
2017-12-23T09:37:19.605Z,1028.84
2017-12-23T09:38:41.645Z,1028.91
2017-12-23T09:40:03.776Z,1028.68
2017-12-23T09:41:25.686Z,1028.76
2017-12-23T09:42:48.098Z,1028.82
2017-12-23T09:44:09.436Z,1028.84
2017-12-23T09:45:31.331Z,1028.87
2017-12-23T09:46:53.194Z,1028.75
2017-12-23T09:48:15.555Z,1028.82
2017-12-23T09:49:37.444Z,1028.8
2017-12-23T09:50:59.572Z,1028.77
2017-12-23T09:52:21.775Z,1028.73
2017-12-23T09:53:43.875Z,1028.76
2017-12-23T09:55:05.486Z,1028.77
2017-12-23T09:56:27.368Z,1028.81
2017-12-23T09:57:49.784Z,1028.79
2017-12-23T09:59:11.435Z,1028.77
2017-12-23T10:00:33.593Z,1028.72
2017-12-23T10:01:55.731Z,1028.63
2017-12-23T10:03:17.866Z,1028.67
2017-12-23T10:04:39.999Z,1028.56
2017-12-23T10:06:01.631Z,1028.62
2017-12-23T10:07:23.240Z,1028.59
2017-12-23T10:08:44.861Z,1028.5
2017-12-23T10:10:06.533Z,1028.52
2017-12-23T10:11:28.416Z,1028.51
2017-12-23T10:12:50.113Z,1028.46
2017-12-23T10:14:12.466Z,1028.49
2017-12-23T10:15:34.330Z,1028.32
2017-12-23T10:16:56.355Z,1028.44
2017-12-23T10:18:18.297Z,1028.42
2017-12-23T10:19:40.483Z,1028.45
2017-12-23T10:21:02.374Z,1028.48
2017-12-23T10:22:24.265Z,1028.52
2017-12-23T10:23:46.145Z,1028.41
2017-12-23T10:25:08.269Z,1028.52
2017-12-23T10:26:30.553Z,1028.47
2017-12-23T10:27:52.456Z,1028.39
2017-12-23T10:29:14.059Z,1028.33
2017-12-23T10:30:35.940Z,1028.32
2017-12-23T10:31:58.153Z,1028.36
2017-12-23T10:33:20.067Z,1028.4
2017-12-23T10:34:41.946Z,1028.32
2017-12-23T10:36:04.078Z,1028.33
2017-12-23T10:37:26.027Z,1028.29
2017-12-23T10:38:47.922Z,1028.34
2017-12-23T10:40:10.083Z,1028.27
2017-12-23T10:41:31.947Z,1028.26
2017-12-23T10:42:54.174Z,1028.34
2017-12-23T10:44:16.044Z,1028.23
2017-12-23T10:45:38.017Z,1028.23
2017-12-23T10:47:00.545Z,1028.24
2017-12-23T10:48:22.519Z,1028.22
2017-12-23T10:49:44.372Z,1028.26
2017-12-23T10:51:06.374Z,1028.22
2017-12-23T10:52:28.417Z,1028.09
2017-12-23T10:53:50.604Z,1028.14
2017-12-23T10:55:12.576Z,1028.05
2017-12-23T10:56:34.889Z,1028.11
2017-12-23T10:57:57.022Z,1028.03
2017-12-23T10:59:19.220Z,1028.01
2017-12-23T11:00:41.488Z,1027.96
2017-12-23T11:02:03.693Z,1027.95
2017-12-23T11:03:25.922Z,1027.95
2017-12-23T11:04:48.211Z,1028.02
2017-12-23T11:06:09.554Z,1027.89
2017-12-23T11:07:31.440Z,1027.9
2017-12-23T11:08:53.962Z,1027.89
2017-12-23T11:10:15.910Z,1027.94
2017-12-23T11:11:38.070Z,1027.77
2017-12-23T11:12:59.697Z,1027.85
2017-12-23T11:14:21.845Z,1027.83
2017-12-23T11:15:43.454Z,1027.78
2017-12-23T11:17:05.597Z,1027.82
2017-12-23T11:18:27.633Z,1027.85
2017-12-23T11:19:49.524Z,1027.8
2017-12-23T11:21:11.144Z,1027.8
2017-12-23T11:22:32.794Z,1027.84
2017-12-23T11:23:54.706Z,1027.86
2017-12-23T11:25:16.628Z,1027.94
2017-12-23T11:26:38.836Z,1027.95
2017-12-23T11:28:00.747Z,1027.93
2017-12-23T11:29:22.646Z,1027.89
2017-12-23T11:30:44.528Z,1027.91
2017-12-23T11:32:06.659Z,1027.87
2017-12-23T11:33:28.521Z,1027.84
2017-12-23T11:34:50.770Z,1027.83
2017-12-23T11:36:12.932Z,1027.76
2017-12-23T11:37:34.805Z,1027.77
2017-12-23T11:38:56.774Z,1027.8
2017-12-23T11:40:18.942Z,1027.75
2017-12-23T11:41:41.308Z,1027.74
2017-12-23T11:43:02.919Z,1027.69
2017-12-23T11:44:24.549Z,1027.69
2017-12-23T11:45:46.455Z,1027.71
2017-12-23T11:47:08.517Z,1027.67
2017-12-23T11:48:30.597Z,1027.61
2017-12-23T11:49:52.603Z,1027.58
2017-12-23T11:51:14.526Z,1027.64
2017-12-23T11:52:36.688Z,1027.48
2017-12-23T11:53:58.843Z,1027.53
2017-12-23T11:55:20.777Z,1027.56
2017-12-23T11:56:42.921Z,1027.6
2017-12-23T11:58:05.099Z,1027.53
2017-12-23T11:59:26.998Z,1027.52
2017-12-23T12:00:48.864Z,1027.46
2017-12-23T12:02:10.819Z,1027.45
2017-12-23T12:03:32.748Z,1027.52
2017-12-23T12:04:55.409Z,1027.49
2017-12-23T12:06:17.774Z,1027.53
2017-12-23T12:07:39.395Z,1027.48
2017-12-23T12:09:01.390Z,1027.47
2017-12-23T12:10:23.412Z,1027.49
2017-12-23T12:11:45.317Z,1027.47
2017-12-23T12:13:07.455Z,1027.45
2017-12-23T12:14:29.339Z,1027.37
2017-12-23T12:15:51.243Z,1027.38
2017-12-23T12:17:12.880Z,1027.33
2017-12-23T12:18:34.846Z,1027.33
2017-12-23T12:19:57.056Z,1027.31
2017-12-23T12:21:19.192Z,1027.26
2017-12-23T12:22:41.095Z,1027.22
2017-12-23T12:24:03.353Z,1027.28
2017-12-23T12:25:25.529Z,1027.19
2017-12-23T12:26:47.780Z,1027.14
2017-12-23T12:28:09.945Z,1027.17
2017-12-23T12:29:32.028Z,1027.1
2017-12-23T12:30:53.982Z,1027.18
2017-12-23T12:32:15.660Z,1027.18
2017-12-23T12:33:37.288Z,1027.29
2017-12-23T12:34:58.919Z,1027.23
2017-12-23T12:36:21.145Z,1027.21
2017-12-23T12:37:43.067Z,1027.13
2017-12-23T12:39:05.234Z,1027.24
2017-12-23T12:40:27.401Z,1027.25
2017-12-23T12:41:49.607Z,1027.19
2017-12-23T12:43:11.237Z,1027.23
2017-12-23T12:44:33.472Z,1027.24
2017-12-23T12:45:55.381Z,1027.26
2017-12-23T12:47:16.764Z,1027.19
2017-12-23T12:48:38.878Z,1027.17
2017-12-23T12:50:01.122Z,1027.13
2017-12-23T12:51:23.275Z,1027.12
2017-12-23T12:52:45.449Z,1027.07
2017-12-23T12:54:07.732Z,1026.97
2017-12-23T12:55:29.345Z,1027.06
2017-12-23T12:56:51.559Z,1027
2017-12-23T12:58:13.447Z,1027.01
2017-12-23T12:59:35.445Z,1027
2017-12-23T13:00:57.403Z,1027.07
2017-12-23T13:02:19.360Z,1026.97
2017-12-23T13:03:41.668Z,1027.06
2017-12-23T13:05:03.424Z,1027.1
2017-12-23T13:06:25.056Z,1027.09
2017-12-23T13:07:47.265Z,1027.09
2017-12-23T13:09:09.223Z,1027.07
2017-12-23T13:10:31.356Z,1027.02
2017-12-23T13:12:25.417Z,1026.99
2017-12-23T13:13:47.454Z,1027.11
2017-12-23T13:15:09.590Z,1027.07
2017-12-23T13:16:31.789Z,1027.03
2017-12-23T13:17:53.688Z,1026.95
2017-12-23T13:19:15.587Z,1026.88
2017-12-23T13:20:37.619Z,1026.94
2017-12-23T13:21:59.492Z,1026.97
2017-12-23T13:23:21.738Z,1026.96
2017-12-23T13:24:43.751Z,1026.97
2017-12-23T13:26:06.013Z,1026.92
2017-12-23T13:27:27.885Z,1026.92
2017-12-23T13:28:49.770Z,1026.87
2017-12-23T13:30:11.409Z,1026.96
2017-12-23T13:31:33.352Z,1026.88
2017-12-23T13:32:55.503Z,1026.9
2017-12-23T13:34:17.705Z,1026.86
2017-12-23T13:35:39.864Z,1026.88
2017-12-23T13:38:38.846Z,1026.78
2017-12-23T13:40:00.750Z,1026.86
2017-12-23T13:41:22.904Z,1026.8
2017-12-23T13:42:44.943Z,1026.67
2017-12-23T13:44:07.163Z,1026.56
2017-12-23T13:45:28.535Z,1026.68
2017-12-23T13:46:50.414Z,1026.79
2017-12-23T13:48:12.062Z,1026.78
2017-12-23T13:49:33.964Z,1026.81
2017-12-23T13:50:55.856Z,1026.84
2017-12-23T13:52:18.017Z,1026.84
2017-12-23T13:53:39.652Z,1026.84
2017-12-23T13:55:01.850Z,1026.94
2017-12-23T13:56:23.639Z,1026.92
2017-12-23T13:57:45.804Z,1027
2017-12-23T13:59:07.709Z,1027.05
2017-12-23T14:00:29.072Z,1026.94
2017-12-23T14:01:50.980Z,1026.95
2017-12-23T14:03:12.974Z,1027.05
2017-12-23T14:04:34.983Z,1026.99
2017-12-23T14:05:56.879Z,1027.08
2017-12-23T14:07:18.759Z,1027.07
2017-12-23T14:08:40.639Z,1027.01
2017-12-23T14:10:02.875Z,1027.01
2017-12-23T14:11:25.065Z,1027.01
2017-12-23T14:12:46.716Z,1027.06
2017-12-23T14:14:08.584Z,1026.98
2017-12-23T14:15:29.918Z,1026.99
2017-12-23T14:16:51.804Z,1027.05
2017-12-23T14:18:13.928Z,1026.91
2017-12-23T14:19:36.223Z,1026.95
2017-12-23T14:20:58.132Z,1026.94
2017-12-23T14:22:20.261Z,1026.95
2017-12-23T14:23:42.185Z,1026.93
2017-12-23T14:25:03.891Z,1026.93
2017-12-23T14:26:26.063Z,1026.92
2017-12-23T14:27:47.440Z,1026.85
2017-12-23T14:29:10.366Z,1026.84
2017-12-23T14:31:04.304Z,1026.88
2017-12-23T14:32:26.969Z,1026.84
2017-12-23T14:33:48.702Z,1026.97
2017-12-23T14:35:10.884Z,1026.88
2017-12-23T14:36:32.735Z,1026.79
2017-12-23T14:37:54.564Z,1026.92
2017-12-23T14:39:16.847Z,1026.94
2017-12-23T14:40:38.813Z,1026.93
2017-12-23T14:42:00.959Z,1026.97
2017-12-23T14:43:22.590Z,1026.92
2017-12-23T14:44:44.475Z,1026.91
2017-12-23T14:46:06.654Z,1026.9
2017-12-23T14:47:28.418Z,1026.79
2017-12-23T14:48:50.575Z,1026.75
2017-12-23T14:50:12.783Z,1026.76
2017-12-23T14:51:35.019Z,1026.86
2017-12-23T14:52:57.213Z,1026.86
2017-12-23T14:54:18.905Z,1026.91
2017-12-23T14:55:41.142Z,1026.87
2017-12-23T14:57:03.296Z,1026.75
2017-12-23T14:58:25.579Z,1026.77
2017-12-23T14:59:47.554Z,1026.73
2017-12-23T15:01:09.863Z,1026.73
2017-12-23T15:02:31.784Z,1026.75
2017-12-23T15:03:53.657Z,1026.79
2017-12-23T15:05:14.739Z,1026.78
2017-12-23T15:06:36.914Z,1026.81
2017-12-23T15:07:59.325Z,1026.78
2017-12-23T15:09:21.870Z,1026.76
2017-12-23T15:10:43.844Z,1026.75
2017-12-23T15:12:05.729Z,1026.68
2017-12-23T15:13:27.363Z,1026.65
2017-12-23T15:14:49.129Z,1026.62
2017-12-23T15:16:11.332Z,1026.66
2017-12-23T15:17:33.262Z,1026.59
2017-12-23T15:18:55.405Z,1026.49
2017-12-23T15:20:17.967Z,1026.46
2017-12-23T15:21:39.833Z,1026.52
2017-12-23T15:23:01.826Z,1026.57
2017-12-23T15:24:23.716Z,1026.52
2017-12-23T15:25:45.094Z,1026.49
2017-12-23T15:27:07.267Z,1026.45
2017-12-23T15:28:29.448Z,1026.47
2017-12-23T15:29:51.601Z,1026.4
2017-12-23T15:31:13.534Z,1026.42
2017-12-23T15:32:34.925Z,1026.4
2017-12-23T15:33:57.102Z,1026.42
2017-12-23T15:35:18.980Z,1026.3
2017-12-23T15:36:41.128Z,1026.27
2017-12-23T15:38:03.282Z,1026.3
2017-12-23T15:39:24.919Z,1026.24
2017-12-23T15:40:47.153Z,1026.26
2017-12-23T15:42:09.106Z,1026.35
2017-12-23T15:43:31.061Z,1026.33
2017-12-23T15:44:53.211Z,1026.28
2017-12-23T15:46:14.844Z,1026.27
2017-12-23T15:47:37.043Z,1026.23
2017-12-23T15:48:58.949Z,1026.22
2017-12-23T15:50:20.960Z,1026.26
2017-12-23T15:51:42.913Z,1026.23
2017-12-23T15:53:04.835Z,1026.28
2017-12-23T15:54:27.035Z,1026.34
2017-12-23T15:55:48.965Z,1026.33
2017-12-23T15:57:10.855Z,1026.29
2017-12-23T15:58:33.076Z,1026.18
2017-12-23T15:59:55.235Z,1026.29
2017-12-23T16:01:17.418Z,1026.23
2017-12-23T16:02:39.398Z,1026.25
2017-12-23T16:04:01.293Z,1026.23
2017-12-23T16:05:23.217Z,1026.38
2017-12-23T16:06:45.273Z,1026.37
2017-12-23T16:08:07.163Z,1026.36
2017-12-23T16:09:29.134Z,1026.36
2017-12-23T16:10:51.026Z,1026.35
2017-12-23T16:12:12.633Z,1026.39
2017-12-23T16:13:33.974Z,1026.3
2017-12-23T16:14:56.440Z,1026.23
2017-12-23T16:16:18.634Z,1026.15
2017-12-23T16:17:40.806Z,1026.16
2017-12-23T16:19:02.950Z,1026.04
2017-12-23T16:20:24.823Z,1026.07
2017-12-23T16:21:46.857Z,1026.09
2017-12-23T16:23:08.733Z,1026.12
2017-12-23T16:24:30.614Z,1026.03
2017-12-23T16:25:52.237Z,1026.05
2017-12-23T16:27:13.795Z,1026.01
2017-12-23T16:28:35.725Z,1026.06
2017-12-23T16:29:57.608Z,1026.04
2017-12-23T16:31:20.076Z,1026.06
2017-12-23T16:32:42.018Z,1026.04
2017-12-23T16:34:03.915Z,1025.94
2017-12-23T16:35:26.111Z,1025.98
2017-12-23T16:36:48.047Z,1025.93
2017-12-23T16:38:10.190Z,1025.91
2017-12-23T16:39:32.453Z,1025.96